Iowa Falls, IA

7:36 PM CDT on July 23, 2014 (GMT -0500)
Jensen Farm (KIAIOWAF2) Elev 1129 ft | 42.50 °N, 93.20 °W | Change Station

Current weather conditions updated 9 seconds ago

Clear
Clear
76.1 °F
Feels Like 78 °F
N
2.0
Wind Variable Wind from NNE
Gusts 4.0 mph

Tomorrow is forecast to be Cooler than today. Cloudy with rain tomorrow night.

Today
High -- | Low -- °F
--% Chance of Precip.
Yesterday
High -- | Low -- °F
Precip. -- in
5:56 AM 8:42 PM
Waning Crescent, 8% visible
Pressure 30.17 in
Visibility 10.0 miles
Clouds Clear
Heat Index 78 °F
Dew Point 58 °F
Humidity 54%
Rainfall 0.00 in
Snow Depth Not available.
UV 1 out of 12
Pollen 5.90 out of 12
Air Quality Not available.
Flu Activity Not available.
METAR KIFA 240015Z AUTO 02004KT 10SM CLR 25/13 A3017 RMK AO2 T02520133

More Conditions Fewer Conditions

Pressure 30.17 in
Visibility 10.0 miles
Clouds Clear
Heat Index 78 °F
Dew Point 58 °F
Humidity 54%
Rainfall 0.00 in
Snow Depth Not available.
UV 1 out of 12
Pollen 5.90 out of 12
Air Quality Not available.
Flu Activity Not available.
METAR KIFA 240015Z AUTO 02004KT 10SM CLR 25/13 A3017 RMK AO2 T02520133

More Conditions Fewer Conditions

10-Day Weather Forecast

Almanac

Astronomy

Jul. 23, 2014 Rise Set
Actual Time 5:56 AM CDT 8:42 PM CDT
Civil Twilight 5:23 AM CDT 9:15 PM CDT
Nautical Twilight 4:42 AM CDT 9:56 PM CDT
Astronomical Twilight 3:54 AM CDT 10:43 PM CDT
Moon 3:16 AM CDT (7/23) 6:11 PM CDT (7/23)
Length of Visible Light 15h 51m
Length of Day
14h 45m
Tomorrow will be 1m 52s shorter.
Waning Crescent, 8% of the Moon is Illuminated
Today
Waning Crescent
Jul 26
New
Aug 3
First Quarter
Aug 10
Full
Aug 17
Last Quarter

Today's Extremes

State Highs State Lows

Community

WunderPhotos

Upload Photos

1,736,822 photos uploaded!

Nearby

Snow Depth

Station Depth Elevation
No new snow has been reported.

Earthquake Activity

City Distance Mag. Time & Date
No recent earthquake activity has been reported nearby.
Minimum magnitude displayed is 2.5.

Coastal Water Temperatures

Place Temperature
No Stations Reporting

Nearby Weather Stations

Station Location Temp. Heat Index Dew Point Humidity Wind Precip. Elev Updated Type
Jensen Farm, Iowa Falls, IA 76.1 °F 78 °F 58 °F 54% NNE  at  2.0 mph 0.00 in / hr 1129 ft 7:36 PM CDT Rapid Fire
Beeds Addition, Hampton, IA 78.8 °F 80 °F 63 °F 59% North  at  0.7 mph 0.00 in / hr 1145 ft 7:36 PM CDT Rapid Fire
MesoWest GARDEN , Garden City, IA 78 °F 76 °F - - North  at  - 0.00 in / hr 1200 ft 6:05 PM CDT MADIS
MesoWest SHEFFI , Chapin, IA 87 °F 84 °F - - North  at  - 0.00 in / hr 1154 ft 6:30 PM CDT MADIS

Show More Stations Show Fewer Stations